createdAt,value
2018-05-25T00:00:44.705Z,51.16
2018-05-25T00:03:12.210Z,50.99
2018-05-25T00:05:39.775Z,51.06
2018-05-25T00:08:07.249Z,51.54
2018-05-25T00:10:34.763Z,51.43
2018-05-25T00:13:02.264Z,51.98
2018-05-25T00:15:29.779Z,52.32
2018-05-25T00:17:57.258Z,52.21
2018-05-25T00:20:24.800Z,52.43
2018-05-25T00:22:52.289Z,52.72
2018-05-25T00:25:19.770Z,53.16
2018-05-25T00:27:47.267Z,53.11
2018-05-25T00:30:14.892Z,53.58
2018-05-25T00:32:42.401Z,52.82
2018-05-25T00:35:09.877Z,53.32
2018-05-25T00:37:37.477Z,52.99
2018-05-25T00:40:05.000Z,53.46
2018-05-25T00:42:32.521Z,53.74
2018-05-25T00:45:00.036Z,53.42
2018-05-25T00:47:27.548Z,53.10
2018-05-25T00:49:55.064Z,52.93
2018-05-25T00:52:22.570Z,53.81
2018-05-25T00:55:01.930Z,53.18
2018-05-25T00:57:29.431Z,54.00
2018-05-25T00:59:56.932Z,54.06
2018-05-25T01:02:24.400Z,53.60
2018-05-25T01:04:51.903Z,54.46
2018-05-25T01:07:19.401Z,54.25
2018-05-25T01:09:46.909Z,54.50
2018-05-25T01:12:14.425Z,54.94
2018-05-25T01:14:41.939Z,55.25
2018-05-25T01:17:09.420Z,55.67
2018-05-25T01:19:36.909Z,55.56
2018-05-25T01:22:04.410Z,55.15
2018-05-25T01:24:31.903Z,54.89
2018-05-25T01:26:59.445Z,55.43
2018-05-25T01:29:26.999Z,55.04
2018-05-25T01:31:54.529Z,54.42
2018-05-25T01:34:22.012Z,55.36
2018-05-25T01:36:49.541Z,56.05
2018-05-25T01:39:17.046Z,55.94
2018-05-25T01:41:44.571Z,56.37
2018-05-25T01:44:12.063Z,56.95
2018-05-25T01:46:39.572Z,56.90
2018-05-25T01:49:07.113Z,56.96
2018-05-25T01:51:34.581Z,56.33
2018-05-25T01:54:02.081Z,56.05
2018-05-25T01:56:29.597Z,56.62
2018-05-25T01:58:57.102Z,57.14
2018-05-25T02:01:24.591Z,57.66
2018-05-25T02:03:52.203Z,57.28
2018-05-25T02:06:19.706Z,58.24
2018-05-25T02:08:47.224Z,57.71
2018-05-25T02:11:14.767Z,57.46
2018-05-25T02:13:42.746Z,57.84
2018-05-25T02:16:10.263Z,58.26
2018-05-25T02:18:37.803Z,59.09
2018-05-25T02:21:05.365Z,58.53
2018-05-25T02:23:32.860Z,59.19
2018-05-25T02:26:00.382Z,59.05
2018-05-25T02:28:27.867Z,59.04
2018-05-25T02:30:55.373Z,59.15
2018-05-25T02:33:22.877Z,59.23
2018-05-25T02:35:50.352Z,58.79
2018-05-25T02:38:17.867Z,59.54
2018-05-25T02:40:45.410Z,59.89
2018-05-25T02:43:12.994Z,59.65
2018-05-25T02:45:40.501Z,59.79
2018-05-25T02:48:07.969Z,59.43
2018-05-25T02:50:35.492Z,60.35
2018-05-25T02:53:03.039Z,59.91
2018-05-25T02:55:30.579Z,59.96
2018-05-25T02:57:58.072Z,60.25
2018-05-25T03:00:25.568Z,59.82
2018-05-25T03:02:53.079Z,60.03
2018-05-25T03:05:20.608Z,60.05
2018-05-25T03:07:48.136Z,60.01
2018-05-25T03:10:15.620Z,60.82
2018-05-25T03:12:43.139Z,60.51
2018-05-25T03:15:10.636Z,60.95
2018-05-25T03:17:38.744Z,60.45
2018-05-25T03:20:06.227Z,60.12
2018-05-25T03:22:33.718Z,60.58
2018-05-25T03:25:01.183Z,61.28
2018-05-25T03:27:28.726Z,60.50
2018-05-25T03:29:56.251Z,60.37
2018-05-25T03:32:24.334Z,60.67
2018-05-25T03:34:51.833Z,60.57
2018-05-25T03:37:19.335Z,60.73
2018-05-25T03:39:47.040Z,61.28
2018-05-25T03:42:14.512Z,60.57
2018-05-25T03:44:42.022Z,60.60
2018-05-25T03:47:09.536Z,61.19
2018-05-25T03:49:37.134Z,61.35
2018-05-25T03:52:04.643Z,61.36
2018-05-25T03:54:32.114Z,61.65
2018-05-25T03:56:59.615Z,61.94
2018-05-25T03:59:38.869Z,60.84
2018-05-25T04:02:06.365Z,53.65
2018-05-25T04:04:34.474Z,50.89
2018-05-25T04:07:01.970Z,51.89
2018-05-25T04:09:29.443Z,55.58
2018-05-25T04:11:56.982Z,58.09
2018-05-25T04:14:24.633Z,59.53
2018-05-25T04:16:52.145Z,59.90
2018-05-25T04:19:19.640Z,60.11
2018-05-25T04:21:47.191Z,60.54
2018-05-25T04:24:14.696Z,60.81
2018-05-25T04:26:42.228Z,60.52
2018-05-25T04:29:09.707Z,60.64
2018-05-25T04:31:37.215Z,60.95
2018-05-25T04:34:04.747Z,61.49
2018-05-25T04:36:32.266Z,61.41
2018-05-25T04:38:59.842Z,60.93
2018-05-25T04:41:27.321Z,61.61
2018-05-25T04:43:54.858Z,61.89
2018-05-25T04:46:22.381Z,61.95
2018-05-25T04:48:50.276Z,62.26
2018-05-25T04:51:17.744Z,62.08
2018-05-25T04:53:45.299Z,61.32
2018-05-25T04:56:12.901Z,61.20
2018-05-25T04:58:40.405Z,61.25
2018-05-25T05:01:07.911Z,61.60
2018-05-25T05:03:35.412Z,61.02
2018-05-25T05:06:02.919Z,61.98
2018-05-25T05:08:30.469Z,62.32
2018-05-25T05:10:57.945Z,61.99
2018-05-25T05:13:25.470Z,62.17
2018-05-25T05:15:53.020Z,61.94
2018-05-25T05:18:20.541Z,61.97
2018-05-25T05:20:48.054Z,62.14
2018-05-25T05:23:15.578Z,61.56
2018-05-25T05:25:43.167Z,61.66
2018-05-25T05:28:10.634Z,62.03
2018-05-25T05:30:38.183Z,61.65
2018-05-25T05:33:05.679Z,61.81
2018-05-25T05:35:33.187Z,61.74
2018-05-25T05:38:00.710Z,61.55
2018-05-25T05:40:28.212Z,61.70
2018-05-25T05:42:55.706Z,61.72
2018-05-25T05:45:23.208Z,61.84
2018-05-25T05:47:50.700Z,61.49
2018-05-25T05:50:18.933Z,61.32
2018-05-25T05:52:46.485Z,60.59
2018-05-25T05:55:13.994Z,61.65
2018-05-25T05:57:41.533Z,60.56
2018-05-25T06:00:10.817Z,60.63
2018-05-25T06:02:38.374Z,60.85
2018-05-25T06:05:05.924Z,60.82
2018-05-25T06:07:33.480Z,60.35
2018-05-25T06:10:01.090Z,60.33
2018-05-25T06:12:28.808Z,60.80
2018-05-25T06:14:56.411Z,60.27
2018-05-25T06:17:23.955Z,60.61
2018-05-25T06:19:51.468Z,60.26
2018-05-25T06:22:19.013Z,59.91
2018-05-25T06:24:46.509Z,59.58
2018-05-25T06:27:14.088Z,59.48
2018-05-25T06:29:41.593Z,59.72
2018-05-25T06:32:09.143Z,59.19
2018-05-25T06:34:36.739Z,59.58
2018-05-25T06:37:04.222Z,59.58
2018-05-25T06:39:31.813Z,58.68
2018-05-25T06:41:59.413Z,59.20
2018-05-25T06:44:27.048Z,58.96
2018-05-25T06:46:54.677Z,59.11
2018-05-25T06:49:22.267Z,58.67
2018-05-25T06:51:49.810Z,59.38
2018-05-25T06:54:17.521Z,59.57
2018-05-25T06:56:45.087Z,58.28
2018-05-25T06:59:12.635Z,57.71
2018-05-25T07:01:40.390Z,58.80
2018-05-25T07:04:07.909Z,58.26
2018-05-25T07:06:35.449Z,58.29
2018-05-25T07:09:03.039Z,57.66
2018-05-25T07:11:30.575Z,57.11
2018-05-25T07:13:58.062Z,56.59
2018-05-25T07:16:25.609Z,57.86
2018-05-25T07:18:53.211Z,56.98
2018-05-25T07:21:20.738Z,56.98
2018-05-25T07:23:48.263Z,56.54
2018-05-25T07:26:15.779Z,56.59
2018-05-25T07:28:43.312Z,56.43
2018-05-25T07:31:10.804Z,55.73
2018-05-25T07:33:38.289Z,56.13
2018-05-25T07:36:05.829Z,55.88
2018-05-25T07:38:33.474Z,54.87
2018-05-25T07:41:01.005Z,55.28
2018-05-25T07:43:28.495Z,55.33
2018-05-25T07:45:56.188Z,55.30
2018-05-25T07:48:24.639Z,55.22
2018-05-25T07:50:52.131Z,54.37
2018-05-25T07:53:19.640Z,53.77
2018-05-25T07:55:47.206Z,52.95
2018-05-25T07:58:14.744Z,53.17
2018-05-25T08:00:42.537Z,53.59
2018-05-25T08:03:10.150Z,54.06
2018-05-25T08:05:38.218Z,54.36
2018-05-25T08:08:06.063Z,53.42
2018-05-25T08:10:34.348Z,54.02
2018-05-25T08:13:02.068Z,54.16
2018-05-25T08:15:29.917Z,52.83
2018-05-25T08:17:57.582Z,52.77
2018-05-25T08:20:25.268Z,53.19
2018-05-25T08:22:52.939Z,52.73
2018-05-25T08:25:20.530Z,51.87
2018-05-25T08:27:48.068Z,51.44
2018-05-25T08:30:15.564Z,52.69
2018-05-25T08:32:43.094Z,51.48
2018-05-25T08:35:10.643Z,52.27
2018-05-25T08:37:38.111Z,50.69
2018-05-25T08:40:05.744Z,50.76
2018-05-25T08:42:33.778Z,50.47
2018-05-25T08:45:01.647Z,51.10
2018-05-25T08:47:30.512Z,51.51
2018-05-25T08:49:58.288Z,51.38
2018-05-25T08:52:25.840Z,50.60
2018-05-25T08:54:53.360Z,49.71
2018-05-25T08:57:20.883Z,50.09
2018-05-25T08:59:48.395Z,49.67
2018-05-25T09:02:15.907Z,50.05
2018-05-25T09:04:43.412Z,48.14
2018-05-25T09:07:11.005Z,48.31
2018-05-25T09:09:38.654Z,49.49
2018-05-25T09:12:06.224Z,49.29
2018-05-25T09:14:33.751Z,49.14
2018-05-25T09:17:01.328Z,48.80
2018-05-25T09:19:29.012Z,46.76
2018-05-25T09:21:56.607Z,48.00
2018-05-25T09:24:24.068Z,47.33
2018-05-25T09:26:51.604Z,46.26
2018-05-25T09:29:19.287Z,46.82
2018-05-25T09:31:46.859Z,46.53
2018-05-25T09:34:15.160Z,46.92
2018-05-25T09:36:43.663Z,46.78
2018-05-25T09:39:11.171Z,44.60
2018-05-25T09:41:38.729Z,43.92
2018-05-25T09:44:06.241Z,44.24
2018-05-25T09:46:33.732Z,44.06
2018-05-25T09:49:01.308Z,45.49
2018-05-25T09:51:28.856Z,43.68
2018-05-25T09:53:56.333Z,43.26
2018-05-25T09:56:23.832Z,43.43
2018-05-25T09:58:51.367Z,42.51
2018-05-25T10:01:18.902Z,43.11
2018-05-25T10:03:46.427Z,43.08
2018-05-25T10:06:13.969Z,42.06
2018-05-25T10:08:41.505Z,43.07
2018-05-25T10:11:08.967Z,42.38
2018-05-25T10:13:36.531Z,42.35
2018-05-25T10:16:04.088Z,42.92
2018-05-25T10:18:31.593Z,42.55
2018-05-25T10:20:59.073Z,41.54
2018-05-25T10:23:26.623Z,40.82
2018-05-25T10:25:54.174Z,41.20
2018-05-25T10:28:21.688Z,40.74
2018-05-25T10:30:49.222Z,40.46
2018-05-25T10:33:16.799Z,40.68
2018-05-25T10:35:44.317Z,40.75
2018-05-25T10:38:11.815Z,39.97
2018-05-25T10:40:39.348Z,40.77
2018-05-25T10:43:06.860Z,41.43
2018-05-25T10:45:34.351Z,41.62
2018-05-25T10:48:01.893Z,40.63
2018-05-25T10:50:29.389Z,40.29
2018-05-25T10:52:56.980Z,40.74
2018-05-25T10:55:24.502Z,40.64
2018-05-25T10:57:51.982Z,41.07
2018-05-25T11:00:19.517Z,40.72
2018-05-25T11:02:47.007Z,41.25
2018-05-25T11:05:14.543Z,40.08
2018-05-25T11:07:42.032Z,40.95
2018-05-25T11:10:09.570Z,39.28
2018-05-25T11:12:37.118Z,40.24
2018-05-25T11:15:04.649Z,41.08
2018-05-25T11:17:32.135Z,40.86
2018-05-25T11:19:59.632Z,40.46
2018-05-25T11:22:27.171Z,39.09
2018-05-25T11:24:54.663Z,40.26
2018-05-25T11:27:22.190Z,39.92
2018-05-25T11:29:49.695Z,39.00
2018-05-25T11:32:17.298Z,39.22
2018-05-25T11:34:44.807Z,38.75
2018-05-25T11:37:12.369Z,38.64
2018-05-25T11:39:39.896Z,38.81
2018-05-25T11:42:07.512Z,39.72
2018-05-25T11:44:35.010Z,40.07
2018-05-25T11:47:02.502Z,37.78
2018-05-25T11:49:30.017Z,38.00
2018-05-25T11:51:57.556Z,39.02
2018-05-25T11:54:25.080Z,38.75
2018-05-25T11:56:52.582Z,38.61
2018-05-25T11:59:20.097Z,38.33
2018-05-25T12:01:47.659Z,38.27
2018-05-25T12:04:18.549Z,38.46
2018-05-25T12:06:46.768Z,37.00
2018-05-25T12:09:14.297Z,37.12
2018-05-25T12:11:44.522Z,36.80
2018-05-25T12:14:15.807Z,36.90
2018-05-25T12:16:54.856Z,36.73
2018-05-25T12:19:32.180Z,36.08
2018-05-25T12:22:01.028Z,36.12
2018-05-25T12:24:28.519Z,37.15
2018-05-25T12:26:56.077Z,36.56
2018-05-25T12:29:23.637Z,36.08
2018-05-25T12:34:55.289Z,34.60
2018-05-25T12:37:22.820Z,35.13
2018-05-25T12:39:53.346Z,34.92
2018-05-25T12:42:20.861Z,34.80
2018-05-25T12:45:00.196Z,34.80
2018-05-25T12:47:27.720Z,35.17
2018-05-25T12:49:55.201Z,35.08
2018-05-25T12:52:22.721Z,34.95
2018-05-25T12:54:50.256Z,32.65
2018-05-25T12:57:17.752Z,34.21
2018-05-25T12:59:45.337Z,34.92
2018-05-25T13:02:12.855Z,36.44
2018-05-25T13:04:40.395Z,34.29
2018-05-25T13:07:07.880Z,34.82
2018-05-25T13:09:35.372Z,36.69
2018-05-25T13:12:02.868Z,34.50
2018-05-25T13:14:30.373Z,34.66
2018-05-25T13:16:57.950Z,35.23
2018-05-25T13:19:25.467Z,36.05
2018-05-25T13:21:53.188Z,35.74
2018-05-25T13:24:20.937Z,35.33
2018-05-25T13:26:48.466Z,33.68
2018-05-25T13:29:16.611Z,35.10
2018-05-25T13:31:44.106Z,33.87
2018-05-25T13:34:11.621Z,33.40
2018-05-25T13:36:39.100Z,33.91
2018-05-25T13:39:06.684Z,32.95
2018-05-25T13:41:34.153Z,34.31
2018-05-25T13:44:01.865Z,34.03
2018-05-25T13:46:29.455Z,34.33
2018-05-25T13:48:56.956Z,34.88
2018-05-25T13:51:24.469Z,34.67
2018-05-25T13:53:51.945Z,34.88
2018-05-25T13:56:19.441Z,34.48
2018-05-25T13:58:46.923Z,32.84
2018-05-25T14:01:14.926Z,33.53
2018-05-25T14:03:42.403Z,33.80
2018-05-25T14:06:09.957Z,33.85
2018-05-25T14:08:37.453Z,34.29
2018-05-25T14:11:04.977Z,33.61
2018-05-25T14:13:32.453Z,33.00
2018-05-25T14:15:59.940Z,33.67
2018-05-25T14:18:27.433Z,33.19
2018-05-25T14:20:54.923Z,33.86
2018-05-25T14:23:22.421Z,33.83
2018-05-25T14:25:49.910Z,34.36
2018-05-25T14:28:17.430Z,34.05
2018-05-25T14:30:45.050Z,34.68
2018-05-25T14:33:12.554Z,34.62
2018-05-25T14:35:40.033Z,33.47
2018-05-25T14:38:07.519Z,33.21
2018-05-25T14:40:35.041Z,32.69
2018-05-25T14:43:02.526Z,34.10
2018-05-25T14:45:30.047Z,33.35
2018-05-25T14:47:57.510Z,32.68
2018-05-25T14:50:25.133Z,32.65
2018-05-25T14:52:52.642Z,32.55
2018-05-25T14:55:20.134Z,33.05
2018-05-25T14:57:47.654Z,33.12
2018-05-25T15:00:15.121Z,32.91
2018-05-25T15:02:42.667Z,33.83
2018-05-25T15:05:10.167Z,32.92
2018-05-25T15:07:37.662Z,33.36
2018-05-25T15:10:05.161Z,33.11
2018-05-25T15:12:32.712Z,33.61
2018-05-25T15:15:00.238Z,33.08
2018-05-25T15:17:27.754Z,32.39
2018-05-25T15:19:55.304Z,33.15
2018-05-25T15:22:22.939Z,32.45
2018-05-25T15:24:51.037Z,31.96
2018-05-25T15:27:18.545Z,33.02
2018-05-25T15:29:46.039Z,33.09
2018-05-25T15:32:13.559Z,31.49
2018-05-25T15:34:41.080Z,31.66
2018-05-25T15:37:08.587Z,31.29
2018-05-25T15:39:36.101Z,32.51
2018-05-25T15:42:03.721Z,31.90
2018-05-25T15:44:31.192Z,33.01
2018-05-25T15:46:58.698Z,33.85
2018-05-25T15:49:26.225Z,34.51
2018-05-25T15:51:53.738Z,34.87
2018-05-25T15:54:21.245Z,34.69
2018-05-25T15:56:48.727Z,34.49
2018-05-25T15:59:16.251Z,35.04
2018-05-25T16:01:43.725Z,35.32
2018-05-25T16:04:11.236Z,35.31
2018-05-25T16:06:38.785Z,35.32
2018-05-25T16:09:06.274Z,35.05
2018-05-25T16:11:33.756Z,34.91
2018-05-25T16:14:01.294Z,35.30
2018-05-25T16:16:28.767Z,34.87
2018-05-25T16:18:56.295Z,35.22
2018-05-25T16:21:23.788Z,35.02
2018-05-25T16:23:51.270Z,34.84
2018-05-25T16:26:18.810Z,34.87
2018-05-25T16:28:46.307Z,35.15
2018-05-25T16:31:13.853Z,34.90
2018-05-25T16:33:41.355Z,35.00
2018-05-25T16:36:08.868Z,34.45
2018-05-25T16:38:36.345Z,35.38
2018-05-25T16:41:03.896Z,35.44
2018-05-25T16:43:31.401Z,35.31
2018-05-25T16:45:58.943Z,35.12
2018-05-25T16:48:26.445Z,35.22
2018-05-25T16:50:53.991Z,34.60
2018-05-25T16:53:21.500Z,35.25
2018-05-25T16:55:49.006Z,35.05
2018-05-25T16:58:16.543Z,35.94
2018-05-25T17:00:44.044Z,35.88
2018-05-25T17:03:11.652Z,36.07
2018-05-25T17:05:39.158Z,35.96
2018-05-25T17:08:06.706Z,36.01
2018-05-25T17:10:34.225Z,35.87
2018-05-25T17:13:01.784Z,36.74
2018-05-25T17:15:29.271Z,37.19
2018-05-25T17:17:56.809Z,37.09
2018-05-25T17:20:24.323Z,37.52
2018-05-25T17:22:51.858Z,37.54
2018-05-25T17:25:19.357Z,37.96
2018-05-25T17:27:46.829Z,38.14
2018-05-25T17:30:14.461Z,37.73
2018-05-25T17:32:41.924Z,38.02
2018-05-25T17:35:09.436Z,37.74
2018-05-25T17:37:36.990Z,38.20
2018-05-25T17:40:04.497Z,38.06
2018-05-25T17:42:31.971Z,37.82
2018-05-25T17:44:59.500Z,38.26
2018-05-25T17:47:27.035Z,38.01
2018-05-25T17:49:54.658Z,38.01
2018-05-25T17:52:22.191Z,38.32
2018-05-25T17:54:49.748Z,38.69
2018-05-25T17:57:17.268Z,37.96
2018-05-25T17:59:44.893Z,38.00
2018-05-25T18:02:12.391Z,38.71
2018-05-25T18:04:39.923Z,38.65
2018-05-25T18:07:07.415Z,38.66
2018-05-25T18:09:34.969Z,39.04
2018-05-25T18:12:02.463Z,38.60
2018-05-25T18:14:29.972Z,39.36
2018-05-25T18:16:57.479Z,39.57
2018-05-25T18:19:24.950Z,40.21
2018-05-25T18:21:52.467Z,40.82
2018-05-25T18:24:21.039Z,40.39
2018-05-25T18:26:48.557Z,41.18
2018-05-25T18:29:17.122Z,40.48
2018-05-25T18:31:44.643Z,40.79
2018-05-25T18:34:13.350Z,40.80
2018-05-25T18:36:41.837Z,41.06
2018-05-25T18:39:10.236Z,41.44
2018-05-25T18:41:37.731Z,41.81
2018-05-25T18:44:08.021Z,41.31
2018-05-25T18:46:35.554Z,41.76
2018-05-25T18:49:03.103Z,41.55
2018-05-25T18:51:30.640Z,41.75
2018-05-25T18:54:10.030Z,41.77
2018-05-25T18:56:38.436Z,41.31
2018-05-25T18:59:05.984Z,41.56
2018-05-25T19:01:33.652Z,41.45
2018-05-25T19:04:06.784Z,40.73
2018-05-25T19:06:34.309Z,41.12
2018-05-25T19:09:01.818Z,41.04
2018-05-25T19:11:29.392Z,40.50
2018-05-25T19:13:56.943Z,39.28
2018-05-25T19:16:24.450Z,39.26
2018-05-25T19:18:52.448Z,38.18
2018-05-25T19:21:19.960Z,37.61
2018-05-25T19:23:47.453Z,37.63
2018-05-25T19:26:14.983Z,37.52
2018-05-25T19:28:42.484Z,35.89
2018-05-25T19:31:10.086Z,35.46
2018-05-25T19:33:37.597Z,33.86
2018-05-25T19:36:05.122Z,34.03
2018-05-25T19:38:32.657Z,34.20
2018-05-25T19:41:00.158Z,33.83
2018-05-25T19:43:27.679Z,33.73
2018-05-25T19:45:55.157Z,34.26
2018-05-25T19:48:22.707Z,34.51
2018-05-25T19:50:50.235Z,34.58
2018-05-25T19:53:17.727Z,34.59
2018-05-25T19:55:45.263Z,34.97
2018-05-25T19:58:12.802Z,34.68
2018-05-25T20:00:40.276Z,34.77
2018-05-25T20:03:07.748Z,35.12
2018-05-25T20:05:35.287Z,35.53
2018-05-25T20:08:02.803Z,35.37
2018-05-25T20:10:30.325Z,36.27
2018-05-25T20:12:57.800Z,35.92
2018-05-25T20:15:25.345Z,36.14
2018-05-25T20:17:52.852Z,36.19
2018-05-25T20:20:20.371Z,36.65
2018-05-25T20:22:47.880Z,36.37
2018-05-25T20:25:15.381Z,36.47
2018-05-25T20:27:42.885Z,36.64
2018-05-25T20:30:10.739Z,37.18
2018-05-25T20:32:38.229Z,37.36
2018-05-25T20:35:05.804Z,36.56
2018-05-25T20:37:33.332Z,37.11
2018-05-25T20:40:00.838Z,37.55
2018-05-25T20:42:28.416Z,37.19
2018-05-25T20:44:55.897Z,37.43
2018-05-25T20:47:23.374Z,37.97
2018-05-25T20:49:50.899Z,38.11
2018-05-25T20:52:18.475Z,37.76
2018-05-25T20:54:46.011Z,38.17
2018-05-25T20:57:13.489Z,38.60
2018-05-25T20:59:40.988Z,38.39
2018-05-25T21:02:08.530Z,38.13
2018-05-25T21:04:36.018Z,37.97
2018-05-25T21:07:03.556Z,38.01
2018-05-25T21:09:31.064Z,38.77
2018-05-25T21:11:58.651Z,38.73
2018-05-25T21:14:26.125Z,39.01
2018-05-25T21:16:53.641Z,38.23
2018-05-25T21:19:21.157Z,38.64
2018-05-25T21:21:48.768Z,38.88
2018-05-25T21:24:16.269Z,39.13
2018-05-25T21:26:43.790Z,39.07
2018-05-25T21:29:11.297Z,39.18
2018-05-25T21:31:38.794Z,38.66
2018-05-25T21:34:06.274Z,38.79
2018-05-25T21:36:33.836Z,38.96
2018-05-25T21:39:01.366Z,39.20
2018-05-25T21:41:28.863Z,39.87
2018-05-25T21:43:56.371Z,39.24
2018-05-25T21:46:23.900Z,39.75
2018-05-25T21:48:51.437Z,39.92
2018-05-25T21:51:18.932Z,40.94
2018-05-25T21:53:46.438Z,40.30
2018-05-25T21:56:13.915Z,40.71
2018-05-25T21:58:41.420Z,41.49
2018-05-25T22:01:09.013Z,41.47
2018-05-25T22:03:36.494Z,41.33
2018-05-25T22:06:04.020Z,41.81
2018-05-25T22:08:31.554Z,41.69
2018-05-25T22:10:59.193Z,41.89
2018-05-25T22:13:26.721Z,42.20
2018-05-25T22:15:54.201Z,42.47
2018-05-25T22:18:21.718Z,42.29
2018-05-25T22:20:49.300Z,42.08
2018-05-25T22:23:16.816Z,42.57
2018-05-25T22:25:44.456Z,42.89
2018-05-25T22:28:12.004Z,43.07
2018-05-25T22:36:41.268Z,44.83
2018-05-25T22:45:43.152Z,46.22
2018-05-25T22:48:24.729Z,46.54
2018-05-25T22:53:59.384Z,47.53
2018-05-25T22:56:29.861Z,47.45
2018-05-25T22:58:57.372Z,47.90
2018-05-25T23:01:24.862Z,48.23
2018-05-25T23:03:52.485Z,48.21
2018-05-25T23:06:20.860Z,48.02
2018-05-25T23:08:48.367Z,48.52
2018-05-25T23:11:15.850Z,48.96
2018-05-25T23:13:43.355Z,48.94
2018-05-25T23:16:10.903Z,49.34
2018-05-25T23:18:38.454Z,49.12
2018-05-25T23:21:05.906Z,49.53
2018-05-25T23:23:33.452Z,49.64
2018-05-25T23:26:01.661Z,49.75
2018-05-25T23:28:29.170Z,49.64
2018-05-25T23:30:56.676Z,49.19
2018-05-25T23:33:24.148Z,49.57
2018-05-25T23:35:51.717Z,50.04
2018-05-25T23:38:20.176Z,49.66
2018-05-25T23:40:47.679Z,50.10
2018-05-25T23:43:15.173Z,49.45
2018-05-25T23:45:42.717Z,49.21
2018-05-25T23:48:10.221Z,50.13
2018-05-25T23:50:37.768Z,49.44
2018-05-25T23:53:05.302Z,49.23
2018-05-25T23:55:32.790Z,50.72
2018-05-25T23:58:00.308Z,50.82
